KHMP

Henry County Airport

Hampton, Georgia, USA
METAR KHMP 221735Z AUTO 20006KT 10SM SCT028 SCT033 BKN055 29/20 A3011 RMK AO2 T02850202
Observed Flight Rules
May-22 @ 17:35 UTC (10 minutes ago) Visual Flight Rules
Wind Visibility Clouds
200° at 6 knots 10 miles
  • Scattered at 2,800' AGL
  • Scattered at 3,300' AGL
  • Broken at 5,500' AGL
Temperatures Readings
Current 29°C / 84°F
Dewpoint 20°C / 68°F
Humidity 58%
Altimeter 30.11" Hg
Pressure 1020 hPa
Elevation 269
METAR KHMP 221735Z AUTO 20006KT 10SM SCT028 SCT033 BKN055 29/20 A3011 RMK AO2 T02850202
Observed Flight Rules
May-22 @ 17:35 UTC
(10 minutes ago)
VFR
Wind Visibility
200° at 6 knots 10 miles
Clouds
  • Scattered at 2,800' AGL
  • Scattered at 3,300' AGL
  • Broken at 5,500' AGL
Temperature Dewpoint
29°C / 84°F 20°C / 68°F
Humidity Altimeter Pressure
58% 30.11" Hg 1020 hPa